Time;durP1;ratioP1;P1;durP2;ratioP2;P2;SDS_P1;SDS_P2;PMS_P1;PMS_P2;Temp;Humidity;BMP_temperature;BMP_pressure;BME280_temperature;BME280_humidity;BME280_pressure;Samples;Min_cycle;Max_cycle;Signal;HPM_P1;HPM_P2
2022/11/17 00:00:15;;;;;;;;;;;;;;;9.78;92.78;98756.38;5047596;28;19921;-55
2022/11/17 00:02:41;;;;;;;;;;;;;;;9.78;92.82;98739.69;5046848;28;20387;-55
2022/11/17 00:05:06;;;;;;;;;;;;;;;9.77;93.61;98714.19;5048245;28;19999;-57
2022/11/17 00:07:31;;;;;;;;;;;;;;;9.80;93.90;98727.81;5045821;28;19927;-57
2022/11/17 00:09:56;;;;;;;;;;;;;;;9.78;93.96;98706.03;5046774;28;19978;-56
2022/11/17 00:15:25;;;;;;;;;;;;;;;9.81;94.29;98708.25;5020647;28;19924;-56
2022/11/17 00:21:17;;;;;;;;;;;;;;;9.79;94.62;98690.94;5023508;28;19921;-55
2022/11/17 00:23:23;;;;;;;;;;;;;;;9.78;94.60;98690.13;5048010;28;19928;-56
2022/11/17 00:25:48;;;;;;;;;;;;;;;9.76;94.88;98694.03;5047391;28;19917;-56
2022/11/17 00:28:13;;;;;;;;;;;;;;;9.83;94.60;98687.66;5048346;28;20075;-59
2022/11/17 00:36:06;;;;;;;;;;;;;;;9.82;94.62;98653.38;5048490;28;19966;-56
2022/11/17 00:38:31;;;;;;;;;;;;;;;9.80;94.57;98672.16;5047738;28;19925;-63
2022/11/17 00:40:57;;;;;;;;;;;;;;;9.82;94.17;98685.19;5047574;28;19917;-57
2022/11/17 00:43:22;;;;;;;;;;;;;;;9.82;94.27;98662.16;5049015;28;20311;-55
2022/11/17 00:45:47;;;;;;;;;;;;;;;9.83;94.54;98644.41;5045496;28;19924;-56
2022/11/17 00:48:13;;;;;;;;;;;;;;;9.80;94.88;98623.63;5047144;28;19924;-55
2022/11/17 00:50:38;;;;;;;;;;;;;;;9.80;95.46;98621.78;5047611;28;19921;-56
2022/11/17 00:53:03;;;;;;;;;;;;;;;9.83;95.21;98647.06;5046830;28;19923;-56
2022/11/17 00:55:28;;;;;;;;;;;;;;;9.85;95.08;98618.50;5047122;28;19924;-55
2022/11/17 00:57:54;;;;;;;;;;;;;;;9.85;94.98;98626.47;5048160;28;19917;-53
2022/11/17 01:00:20;;;;;;;;;;;;;;;9.84;94.91;98620.34;5044254;28;19916;-56
2022/11/17 01:02:45;;;;;;;;;;;;;;;9.89;94.41;98625.00;5047478;28;20473;-55
2022/11/17 01:05:10;;;;;;;;;;;;;;;9.87;94.89;98619.91;5048856;28;19917;-55
2022/11/17 01:07:35;;;;;;;;;;;;;;;9.85;94.98;98615.88;5042946;28;19921;-55
2022/11/17 01:10:00;;;;;;;;;;;;;;;9.84;94.91;98599.16;5043235;28;20289;-56
2022/11/17 01:12:25;;;;;;;;;;;;;;;9.82;95.08;98581.81;5046148;28;20020;-57
2022/11/17 01:14:51;;;;;;;;;;;;;;;9.83;95.57;98605.47;5044146;28;20335;-55
2022/11/17 01:17:16;;;;;;;;;;;;;;;9.81;95.06;98622.59;5050359;28;20007;-54
2022/11/17 01:19:41;;;;;;;;;;;;;;;9.88;95.26;98626.03;5045998;28;20001;-56
2022/11/17 01:22:06;;;;;;;;;;;;;;;9.83;95.07;98604.63;5048979;28;19948;-56
2022/11/17 01:24:31;;;;;;;;;;;;;;;9.82;95.13;98597.72;5045092;28;19994;-55
2022/11/17 01:26:56;;;;;;;;;;;;;;;9.81;95.43;98586.31;5046974;28;20004;-56
2022/11/17 01:29:22;;;;;;;;;;;;;;;9.85;95.81;98579.56;5048980;28;20308;-55
2022/11/17 01:31:50;;;;;;;;;;;;;;;9.84;95.82;98585.88;5047854;28;19936;-55
2022/11/17 01:34:16;;;;;;;;;;;;;;;9.90;95.55;98573.59;5044909;28;20478;-55
2022/11/17 01:39:27;;;;;;;;;;;;;;;10.00;95.66;98573.06;5042848;28;19979;-60
2022/11/17 01:41:52;;;;;;;;;;;;;;;9.97;95.54;98581.47;5044995;28;19925;-55
2022/11/17 01:44:36;;;;;;;;;;;;;;;9.99;95.35;98576.75;5045744;28;19925;-55
2022/11/17 01:47:12;;;;;;;;;;;;;;;10.01;95.59;98577.31;5045140;28;20495;-55
2022/11/17 01:49:37;;;;;;;;;;;;;;;9.99;95.75;98580.19;5047345;28;19916;-56
2022/11/17 01:52:04;;;;;;;;;;;;;;;10.01;95.71;98566.72;5044682;28;19975;-56
2022/11/17 01:54:33;;;;;;;;;;;;;;;10.06;95.61;98578.28;5046286;28;19917;-57
2022/11/17 01:57:24;;;;;;;;;;;;;;;10.01;95.47;98575.47;5047830;28;19924;-56
2022/11/17 01:59:53;;;;;;;;;;;;;;;10.04;95.52;98575.03;5046671;28;19928;-55
2022/11/17 02:02:19;;;;;;;;;;;;;;;10.05;95.66;98565.25;5046700;28;19917;-56
2022/11/17 02:05:08;;;;;;;;;;;;;;;10.07;95.60;98553.38;5047040;28;20442;-56
2022/11/17 02:07:35;;;;;;;;;;;;;;;10.15;95.13;98547.78;5044801;28;19932;-55
2022/11/17 02:10:01;;;;;;;;;;;;;;;10.14;95.30;98532.91;5041538;28;19912;-57
2022/11/17 02:12:26;;;;;;;;;;;;;;;10.18;95.22;98541.22;5043488;28;19923;-55
2022/11/17 02:14:52;;;;;;;;;;;;;;;10.17;95.38;98550.22;5062404;28;20004;-56
2022/11/17 02:17:18;;;;;;;;;;;;;;;10.16;95.38;98567.97;5048818;28;19920;-55
2022/11/17 02:19:49;;;;;;;;;;;;;;;10.14;95.68;98570.03;5045498;28;19978;-56
2022/11/17 02:22:33;;;;;;;;;;;;;;;10.13;95.92;98565.75;5044454;28;20415;-56
2022/11/17 02:25:06;;;;;;;;;;;;;;;10.09;96.57;98559.25;5044632;28;19916;-59
2022/11/17 02:27:43;;;;;;;;;;;;;;;10.18;96.13;98557.94;5040768;28;19924;-57
2022/11/17 02:30:12;;;;;;;;;;;;;;;10.23;95.71;98533.44;5041771;28;19924;-56
2022/11/17 02:32:43;;;;;;;;;;;;;;;10.24;95.87;98524.44;5045867;28;20403;-55
2022/11/17 02:35:21;;;;;;;;;;;;;;;10.29;95.68;98527.22;5048713;28;19917;-58
2022/11/17 02:37:50;;;;;;;;;;;;;;;10.32;95.77;98524.09;5042322;28;19917;-56
2022/11/17 02:40:25;;;;;;;;;;;;;;;10.37;95.08;98510.16;5044841;28;19920;-57
2022/11/17 02:45:44;;;;;;;;;;;;;;;10.41;94.85;98506.03;5045072;28;20010;-56
2022/11/17 02:48:18;;;;;;;;;;;;;;;10.43;94.71;98499.47;5045023;28;19921;-56
2022/11/17 02:50:45;;;;;;;;;;;;;;;10.42;94.77;98500.50;5045191;28;19920;-55
2022/11/17 02:53:11;;;;;;;;;;;;;;;10.43;94.44;98496.81;5041568;28;19923;-56
2022/11/17 02:55:36;;;;;;;;;;;;;;;10.43;94.60;98486.22;5043567;28;19920;-56
2022/11/17 02:58:01;;;;;;;;;;;;;;;10.43;94.78;98482.75;5044290;28;19928;-56
2022/11/17 03:00:27;;;;;;;;;;;;;;;10.40;94.79;98478.69;5047198;28;19916;-55
2022/11/17 03:02:55;;;;;;;;;;;;;;;10.40;94.69;98456.66;5046551;28;20034;-57
2022/11/17 03:05:33;;;;;;;;;;;;;;;10.41;94.27;98471.56;5043192;28;19939;-55
2022/11/17 03:08:16;;;;;;;;;;;;;;;10.41;94.41;98452.97;5044986;28;19917;-56
2022/11/17 03:10:55;;;;;;;;;;;;;;;10.40;94.04;98459.28;5043257;28;19920;-57
2022/11/17 03:13:40;;;;;;;;;;;;;;;10.38;94.14;98466.69;5041724;28;20380;-56
2022/11/17 03:16:24;;;;;;;;;;;;;;;10.40;94.15;98456.66;5042545;28;19924;-57
2022/11/17 03:19:04;;;;;;;;;;;;;;;10.42;94.04;98447.44;5040955;28;19917;-54
2022/11/17 03:21:37;;;;;;;;;;;;;;;10.42;94.31;98430.72;5043237;28;19963;-57
2022/11/17 03:24:06;;;;;;;;;;;;;;;10.42;94.21;98430.72;5045369;28;19944;-56
2022/11/17 03:26:33;;;;;;;;;;;;;;;10.40;93.79;98424.81;5046878;28;19991;-56
2022/11/17 03:29:00;;;;;;;;;;;;;;;10.34;94.13;98420.41;5042903;28;20113;-55
2022/11/17 03:31:26;;;;;;;;;;;;;;;10.31;93.87;98429.66;5042999;28;19947;-55
2022/11/17 03:33:53;;;;;;;;;;;;;;;10.30;93.80;98433.34;5042392;28;20301;-56
2022/11/17 03:36:21;;;;;;;;;;;;;;;10.27;93.92;98432.97;5043668;28;20383;-56
2022/11/17 03:38:53;;;;;;;;;;;;;;;10.27;93.86;98417.06;5039224;28;20019;-57
2022/11/17 03:41:20;;;;;;;;;;;;;;;10.27;93.61;98406.47;5041929;28;19948;-56
2022/11/17 03:43:48;;;;;;;;;;;;;;;10.23;93.87;98417.53;5043221;28;19970;-58
2022/11/17 03:46:15;;;;;;;;;;;;;;;10.18;93.77;98414.72;5039786;28;20313;-57
2022/11/17 03:48:44;;;;;;;;;;;;;;;10.18;93.79;98408.59;5046890;28;19923;-56
2022/11/17 03:51:11;;;;;;;;;;;;;;;10.14;93.42;98410.09;5042462;28;19970;-56
2022/11/17 03:53:37;;;;;;;;;;;;;;;10.14;93.49;98400.31;5047096;28;20003;-55
2022/11/17 03:56:20;;;;;;;;;;;;;;;10.17;93.58;98399.84;5045217;28;20003;-56
2022/11/17 03:58:51;;;;;;;;;;;;;;;10.16;93.65;98400.06;5045228;28;19917;-57
2022/11/17 04:01:18;;;;;;;;;;;;;;;10.13;93.55;98397.88;5047519;28;19920;-56
2022/11/17 04:03:43;;;;;;;;;;;;;;;10.11;93.78;98387.47;5046047;28;19946;-57
2022/11/17 04:06:08;;;;;;;;;;;;;;;10.13;93.72;98381.97;5049984;28;19924;-56
2022/11/17 04:08:33;;;;;;;;;;;;;;;10.12;94.02;98373.19;5047550;28;19955;-56
2022/11/17 04:16:26;;;;;;;;;;;;;;;10.26;93.68;98362.41;5042431;28;20016;-56
2022/11/17 04:18:52;;;;;;;;;;;;;;;10.25;93.83;98358.94;5048985;28;20018;-57
2022/11/17 04:21:17;;;;;;;;;;;;;;;10.27;93.85;98364.81;5048044;28;19939;-59
2022/11/17 04:23:42;;;;;;;;;;;;;;;10.30;93.68;98374.16;5048589;28;19928;-57
2022/11/17 04:28:52;;;;;;;;;;;;;;;10.39;93.20;98368.28;5045708;28;19982;-56
2022/11/17 04:31:17;;;;;;;;;;;;;;;10.44;93.52;98357.00;5046835;28;19924;-55
2022/11/17 04:33:43;;;;;;;;;;;;;;;10.44;93.32;98359.66;5056059;28;20296;-55
2022/11/17 04:36:09;;;;;;;;;;;;;;;10.44;93.47;98372.94;5046407;28;19925;-56
2022/11/17 04:38:34;;;;;;;;;;;;;;;10.46;93.18;98366.34;5049569;28;19959;-56
2022/11/17 04:43:44;;;;;;;;;;;;;;;10.44;93.29;98368.44;5048086;28;19923;-54
2022/11/17 04:46:09;;;;;;;;;;;;;;;10.45;93.37;98370.03;5051284;28;19913;-56
2022/11/17 04:48:35;;;;;;;;;;;;;;;10.43;93.34;98350.91;5045281;28;20348;-56
2022/11/17 04:51:00;;;;;;;;;;;;;;;10.40;93.57;98331.94;5047213;28;20012;-55
2022/11/17 04:53:25;;;;;;;;;;;;;;;10.39;93.94;98319.72;5046596;28;20065;-55
2022/11/17 04:55:50;;;;;;;;;;;;;;;10.40;93.93;98318.69;5050885;28;19960;-55
2022/11/17 04:58:15;;;;;;;;;;;;;;;10.34;93.63;98319.59;5046819;28;19917;-56
2022/11/17 05:00:41;;;;;;;;;;;;;;;10.30;93.66;98334.38;5053909;28;19912;-57
2022/11/17 05:03:06;;;;;;;;;;;;;;;10.28;94.27;98325.84;5050742;28;19944;-56
2022/11/17 05:05:31;;;;;;;;;;;;;;;10.27;94.27;98321.56;5055688;28;19913;-53
2022/11/17 05:07:56;;;;;;;;;;;;;;;10.23;94.27;98323.88;5049261;28;19913;-56
2022/11/17 05:13:21;;;;;;;;;;;;;;;10.21;94.32;98308.19;5047743;28;19919;-55
2022/11/17 05:18:32;;;;;;;;;;;;;;;10.19;94.77;98325.34;5045971;28;20004;-56
2022/11/17 05:21:04;;;;;;;;;;;;;;;10.15;94.75;98327.66;5049157;28;19952;-55
2022/11/17 05:26:13;;;;;;;;;;;;;;;10.17;94.42;98325.59;5049254;28;19924;-55
2022/11/17 05:28:38;;;;;;;;;;;;;;;10.17;94.58;98322.94;5050302;28;19920;-56
2022/11/17 05:31:04;;;;;;;;;;;;;;;10.15;94.38;98340.91;5044072;28;19916;-54
2022/11/17 05:33:29;;;;;;;;;;;;;;;10.15;94.46;98335.63;5049731;28;19912;-56
2022/11/17 05:35:54;;;;;;;;;;;;;;;10.14;94.68;98341.97;5053364;28;19939;-55
2022/11/17 05:38:19;;;;;;;;;;;;;;;10.14;95.45;98360.53;5058070;28;19913;-57
2022/11/17 05:40:44;;;;;;;;;;;;;;;10.13;96.57;98363.41;5049638;28;19913;-55
2022/11/17 05:43:09;;;;;;;;;;;;;;;10.13;96.99;98360.75;5049303;28;20615;-55
2022/11/17 05:45:35;;;;;;;;;;;;;;;10.11;97.13;98366.25;5046238;28;20007;-54
2022/11/17 05:48:00;;;;;;;;;;;;;;;10.11;97.44;98360.94;5049236;28;19913;-58
2022/11/17 05:50:25;;;;;;;;;;;;;;;10.10;97.71;98363.84;5048170;28;20407;-56
2022/11/17 05:52:50;;;;;;;;;;;;;;;10.10;97.77;98375.25;5052550;28;19924;-56
2022/11/17 05:55:15;;;;;;;;;;;;;;;10.09;98.42;98373.63;5048682;28;20479;-56
2022/11/17 05:57:41;;;;;;;;;;;;;;;10.09;98.54;98370.97;5049314;28;19919;-55
2022/11/17 06:00:07;;;;;;;;;;;;;;;10.09;98.68;98373.63;5042325;28;20022;-56
2022/11/17 06:02:53;;;;;;;;;;;;;;;10.09;98.14;98370.97;5047596;28;19917;-56
2022/11/17 06:05:18;;;;;;;;;;;;;;;10.09;98.47;98383.44;5046663;28;19913;-56
2022/11/17 06:07:43;;;;;;;;;;;;;;;10.08;98.35;98374.66;5044603;28;19924;-56
2022/11/17 06:10:09;;;;;;;;;;;;;;;10.09;98.13;98386.88;5040313;28;20419;-56
2022/11/17 06:12:34;;;;;;;;;;;;;;;10.10;97.84;98375.25;5054283;28;19919;-57
2022/11/17 06:14:59;;;;;;;;;;;;;;;10.13;97.72;98384.63;5051985;28;19920;-56
2022/11/17 06:17:33;;;;;;;;;;;;;;;10.13;97.67;98381.97;5055304;28;20380;-56
2022/11/17 06:20:01;;;;;;;;;;;;;;;10.13;97.91;98387.28;5045071;28;20431;-56
2022/11/17 06:22:28;;;;;;;;;;;;;;;10.14;97.76;98391.53;5047061;28;19913;-58
2022/11/17 06:24:53;;;;;;;;;;;;;;;10.13;97.88;98388.06;5049301;28;19967;-55
2022/11/17 06:27:18;;;;;;;;;;;;;;;10.14;97.82;98392.34;5048390;28;19948;-56
2022/11/17 06:29:45;;;;;;;;;;;;;;;10.15;97.79;98393.16;5047175;28;19920;-55
2022/11/17 06:32:12;;;;;;;;;;;;;;;10.15;97.62;98399.25;5047368;28;19917;-56
2022/11/17 06:34:37;;;;;;;;;;;;;;;10.14;98.02;98402.94;5048552;28;20012;-56
2022/11/17 06:37:03;;;;;;;;;;;;;;;10.14;98.39;98405.59;5048837;28;20007;-56
2022/11/17 06:39:28;;;;;;;;;;;;;;;10.12;98.43;98412.16;5048000;28;19913;-57
2022/11/17 06:41:53;;;;;;;;;;;;;;;10.09;98.09;98416.06;5047872;28;19975;-56
2022/11/17 06:44:18;;;;;;;;;;;;;;;10.09;98.41;98415.25;5053558;28;19913;-55
2022/11/17 06:46:43;;;;;;;;;;;;;;;10.08;97.90;98414.44;5047853;28;19920;-56
2022/11/17 06:49:08;;;;;;;;;;;;;;;10.07;97.99;98426.09;5047370;28;20004;-56
2022/11/17 06:51:34;;;;;;;;;;;;;;;10.08;97.51;98430.34;5050732;28;19931;-55
2022/11/17 06:53:59;;;;;;;;;;;;;;;10.04;97.66;98431.84;5049805;28;19924;-56
2022/11/17 06:56:24;;;;;;;;;;;;;;;10.03;97.47;98437.38;5046522;28;20350;-54
2022/11/17 06:58:50;;;;;;;;;;;;;;;9.99;97.06;98434.38;5053953;28;19962;-55
2022/11/17 07:01:15;;;;;;;;;;;;;;;9.97;96.88;98432.97;5048988;28;20345;-55
2022/11/17 07:03:41;;;;;;;;;;;;;;;9.92;96.77;98445.06;5050891;28;20360;-56
2022/11/17 07:06:08;;;;;;;;;;;;;;;9.86;97.05;98447.81;5048554;28;19997;-55
2022/11/17 07:08:33;;;;;;;;;;;;;;;9.81;97.00;98445.81;5053225;28;20670;-54
2022/11/17 07:11:03;;;;;;;;;;;;;;;9.77;96.86;98433.25;5051512;28;19924;-55
2022/11/17 07:13:28;;;;;;;;;;;;;;;9.76;97.14;98442.22;5041824;28;19920;-56
2022/11/17 07:15:53;;;;;;;;;;;;;;;9.74;97.34;98450.41;5049299;28;19975;-55
2022/11/17 07:18:19;;;;;;;;;;;;;;;9.73;97.20;98437.38;5051394;28;19971;-55
2022/11/17 07:20:45;;;;;;;;;;;;;;;9.67;97.03;98443.56;5043344;28;19917;-56
2022/11/17 07:23:10;;;;;;;;;;;;;;;9.65;97.41;98458.91;5046995;28;19917;-57
2022/11/17 07:25:35;;;;;;;;;;;;;;;9.60;97.47;98452.44;5047375;28;19916;-53
2022/11/17 07:28:01;;;;;;;;;;;;;;;9.59;97.46;98461.41;5051920;28;19923;-55
2022/11/17 07:30:26;;;;;;;;;;;;;;;9.59;97.33;98452.66;5045359;28;19935;-54
2022/11/17 07:32:51;;;;;;;;;;;;;;;9.57;97.42;98463.47;5049637;28;19917;-53
2022/11/17 07:35:16;;;;;;;;;;;;;;;9.58;97.61;98466.94;5047615;28;19944;-54
2022/11/17 07:37:42;;;;;;;;;;;;;;;9.56;97.45;98472.44;5051669;28;20342;-52
2022/11/17 07:40:07;;;;;;;;;;;;;;;9.58;97.36;98466.94;5048261;28;19916;-54
2022/11/17 07:42:32;;;;;;;;;;;;;;;9.56;97.66;98469.81;5050012;28;20490;-54
2022/11/17 07:44:58;;;;;;;;;;;;;;;9.53;97.47;98477.34;5052047;28;19986;-52
2022/11/17 07:47:23;;;;;;;;;;;;;;;9.53;97.21;98475.53;5057628;28;19917;-52
2022/11/17 07:49:48;;;;;;;;;;;;;;;9.54;97.03;98478.97;5049427;28;19919;-56
2022/11/17 07:52:13;;;;;;;;;;;;;;;9.53;97.32;98480.00;5051794;28;19917;-54
2022/11/17 07:54:39;;;;;;;;;;;;;;;9.51;97.48;98490.03;5057560;28;20016;-56
2022/11/17 07:57:04;;;;;;;;;;;;;;;9.50;97.17;98491.06;5054907;28;19920;-55
2022/11/17 07:59:29;;;;;;;;;;;;;;;9.50;97.08;98501.66;5048274;28;20530;-55
2022/11/17 08:01:54;;;;;;;;;;;;;;;9.50;97.45;98491.06;5050605;28;19912;-54
2022/11/17 08:04:22;;;;;;;;;;;;;;;9.47;97.50;98494.97;5052682;28;21269;-53
2022/11/17 08:06:47;;;;;;;;;;;;;;;9.50;97.29;98506.94;5054177;28;19912;-55
2022/11/17 08:09:14;;;;;;;;;;;;;;;9.50;97.17;98506.94;5049032;28;19916;-54
2022/11/17 08:11:39;;;;;;;;;;;;;;;9.49;97.09;98503.50;5048537;28;19924;-56
2022/11/17 08:14:04;;;;;;;;;;;;;;;9.51;96.85;98506.72;5049557;28;19919;-53
2022/11/17 08:16:30;;;;;;;;;;;;;;;9.52;96.78;98513.63;5045748;28;20523;-55
2022/11/17 08:18:56;;;;;;;;;;;;;;;9.51;96.82;98519.97;5057830;28;19916;-55
2022/11/17 08:21:22;;;;;;;;;;;;;;;9.55;96.45;98512.41;5049193;28;19919;-55
2022/11/17 08:23:54;;;;;;;;;;;;;;;9.52;96.79;98521.59;5051082;28;20028;-54
2022/11/17 08:26:19;;;;;;;;;;;;;;;9.53;96.43;98533.00;5050479;28;20120;-52
2022/11/17 08:28:45;;;;;;;;;;;;;;;9.48;96.51;98515.13;5050853;28;20652;-58
2022/11/17 08:31:10;;;;;;;;;;;;;;;9.50;96.35;98531.59;5050013;28;20412;-56
2022/11/17 08:33:36;;;;;;;;;;;;;;;9.49;96.62;98531.81;5050683;28;20388;-59
2022/11/17 08:36:02;;;;;;;;;;;;;;;9.51;96.64;98540.34;5053790;28;19946;-54
2022/11/17 08:38:28;;;;;;;;;;;;;;;9.50;96.42;98542.19;5057004;28;19913;-55
2022/11/17 08:40:54;;;;;;;;;;;;;;;9.49;96.32;98537.94;5053360;28;19924;-55
2022/11/17 08:43:20;;;;;;;;;;;;;;;9.49;96.25;98534.47;5049910;28;19913;-55
2022/11/17 08:45:45;;;;;;;;;;;;;;;9.49;96.46;98539.78;5050758;28;20054;-56
2022/11/17 08:48:10;;;;;;;;;;;;;;;9.45;96.33;98542.06;5049707;28;19916;-56
2022/11/17 08:50:35;;;;;;;;;;;;;;;9.45;96.39;98549.19;5048714;28;20060;-53
2022/11/17 08:53:00;;;;;;;;;;;;;;;9.45;96.50;98544.69;5049881;28;19913;-55
2022/11/17 08:55:26;;;;;;;;;;;;;;;9.46;96.19;98554.28;5054844;28;19959;-55
2022/11/17 08:57:51;;;;;;;;;;;;;;;9.44;96.05;98545.72;5052200;28;20494;-53
2022/11/17 09:00:18;;;;;;;;;;;;;;;9.44;96.13;98555.53;5047934;28;20586;-57
2022/11/17 09:02:44;;;;;;;;;;;;;;;9.42;96.35;98555.75;5051295;28;19916;-56
2022/11/17 09:05:10;;;;;;;;;;;;;;;9.40;96.00;98560.44;5050819;28;19913;-56
2022/11/17 09:07:35;;;;;;;;;;;;;;;9.37;96.01;98546.84;5054455;28;19947;-55
2022/11/17 09:10:01;;;;;;;;;;;;;;;9.34;95.97;98561.31;5055474;28;19913;-57
2022/11/17 09:12:26;;;;;;;;;;;;;;;9.32;96.22;98556.25;5049734;28;19921;-56
2022/11/17 09:14:51;;;;;;;;;;;;;;;9.30;96.21;98568.91;5047723;28;19920;-55
2022/11/17 09:17:16;;;;;;;;;;;;;;;9.28;96.01;98570.16;5063936;28;19940;-57
2022/11/17 09:19:42;;;;;;;;;;;;;;;9.25;96.12;98573.22;5051422;28;19912;-56
2022/11/17 09:22:07;;;;;;;;;;;;;;;9.24;96.14;98580.34;5048756;28;19924;-55
2022/11/17 09:24:32;;;;;;;;;;;;;;;9.25;96.61;98586.44;5048808;28;19952;-54
2022/11/17 09:26:57;;;;;;;;;;;;;;;9.26;96.51;98578.31;5048379;28;19955;-56
2022/11/17 09:29:23;;;;;;;;;;;;;;;9.26;96.28;98577.50;5044975;28;20696;-56
2022/11/17 09:31:48;;;;;;;;;;;;;;;9.26;96.21;98583.63;5047581;28;19990;-54
2022/11/17 09:34:14;;;;;;;;;;;;;;;9.25;96.60;98589.09;5043596;28;20091;-55
2022/11/17 09:36:39;;;;;;;;;;;;;;;9.25;96.34;98592.59;5049280;28;19913;-59
2022/11/17 09:39:04;;;;;;;;;;;;;;;9.25;96.34;98603.19;5045040;28;20027;-55
2022/11/17 09:41:32;;;;;;;;;;;;;;;9.25;96.40;98600.53;5048306;28;19958;-56
2022/11/17 09:43:57;;;;;;;;;;;;;;;9.28;96.39;98597.44;5041430;28;19913;-56
2022/11/17 09:46:43;;;;;;;;;;;;;;;9.30;96.45;98608.63;5046088;28;19916;-56
2022/11/17 09:49:27;;;;;;;;;;;;;;;9.36;96.50;98603.50;5050943;28;19971;-56
2022/11/17 09:51:55;;;;;;;;;;;;;;;9.37;96.16;98608.56;5053292;28;20502;-56
2022/11/17 09:54:25;;;;;;;;;;;;;;;9.40;96.36;98612.63;5045607;28;19956;-55
2022/11/17 09:56:50;;;;;;;;;;;;;;;9.40;96.21;98616.06;5056109;28;19916;-56
2022/11/17 09:59:18;;;;;;;;;;;;;;;9.43;96.25;98617.47;5051902;28;19939;-57
2022/11/17 10:01:43;;;;;;;;;;;;;;;9.45;95.95;98613.59;5049778;28;19920;-57
2022/11/17 10:04:13;;;;;;;;;;;;;;;9.49;95.94;98630.66;5051823;28;19927;-56
2022/11/17 10:06:41;;;;;;;;;;;;;;;9.49;95.52;98620.06;5044786;28;20427;-54
2022/11/17 10:09:25;;;;;;;;;;;;;;;9.51;95.20;98615.34;5048775;28;19983;-56
2022/11/17 10:11:51;;;;;;;;;;;;;;;9.56;95.32;98642.03;5052127;28;19950;-56
2022/11/17 10:14:19;;;;;;;;;;;;;;;9.55;94.89;98631.66;5042650;28;19917;-57
2022/11/17 10:16:48;;;;;;;;;;;;;;;9.57;94.84;98642.84;5042345;28;19921;-57
2022/11/17 10:19:18;;;;;;;;;;;;;;;9.58;94.38;98625.91;5042160;28;19917;-56
2022/11/17 10:21:45;;;;;;;;;;;;;;;9.61;94.42;98630.78;5049765;28;20627;-56
2022/11/17 10:24:31;;;;;;;;;;;;;;;9.66;94.55;98640.72;5048297;28;19966;-56
2022/11/17 10:26:56;;;;;;;;;;;;;;;9.70;93.79;98639.25;5049993;28;19927;-52
2022/11/17 10:29:22;;;;;;;;;;;;;;;9.76;93.52;98649.78;5045140;28;19988;-56
2022/11/17 10:31:47;;;;;;;;;;;;;;;9.79;93.55;98649.34;5051424;28;19927;-56
2022/11/17 10:34:28;;;;;;;;;;;;;;;9.84;92.97;98649.50;5046741;28;19939;-57
2022/11/17 10:36:54;;;;;;;;;;;;;;;9.87;92.31;98650.91;5045540;28;20447;-56
2022/11/17 10:39:33;;;;;;;;;;;;;;;9.90;91.94;98659.22;5047161;28;19924;-55
2022/11/17 10:42:00;;;;;;;;;;;;;;;9.94;92.14;98656.94;5046586;28;19943;-55
2022/11/17 10:44:31;;;;;;;;;;;;;;;9.96;92.03;98660.19;5043746;28;19927;-56
2022/11/17 10:46:57;;;;;;;;;;;;;;;9.96;91.17;98668.16;5047501;28;19916;-56
2022/11/17 10:49:24;;;;;;;;;;;;;;;9.97;91.02;98655.69;5047239;28;19963;-59
2022/11/17 10:52:02;;;;;;;;;;;;;;;10.03;91.42;98676.03;5041942;28;19921;-55
2022/11/17 10:54:27;;;;;;;;;;;;;;;10.06;91.29;98671.09;5048324;28;19924;-56
2022/11/17 10:56:54;;;;;;;;;;;;;;;10.07;90.79;98678.00;5050463;28;19912;-57
2022/11/17 10:59:30;;;;;;;;;;;;;;;10.11;90.37;98673.06;5051096;28;19947;-56
2022/11/17 11:01:55;;;;;;;;;;;;;;;10.11;90.13;98676.53;5047966;28;19916;-55
2022/11/17 11:04:29;;;;;;;;;;;;;;;10.18;90.29;98681.78;5047873;28;19919;-55
2022/11/17 11:07:13;;;;;;;;;;;;;;;10.15;89.51;98698.97;5047009;28;19920;-56
2022/11/17 11:09:41;;;;;;;;;;;;;;;10.17;89.04;98680.16;5046517;28;19913;-56
2022/11/17 11:12:11;;;;;;;;;;;;;;;10.17;88.94;98688.13;5054657;28;19920;-55
2022/11/17 11:14:42;;;;;;;;;;;;;;;10.15;88.92;98685.69;5050978;28;20506;-56
2022/11/17 11:17:10;;;;;;;;;;;;;;;10.15;89.16;98687.53;5055508;28;20433;-57
2022/11/17 11:19:35;;;;;;;;;;;;;;;10.12;89.01;98691.44;5050739;28;20003;-57
2022/11/17 11:22:15;;;;;;;;;;;;;;;10.09;89.18;98702.47;5056199;28;20012;-56
2022/11/17 11:24:49;;;;;;;;;;;;;;;10.09;89.61;98691.03;5048500;28;19971;-56
2022/11/17 11:27:14;;;;;;;;;;;;;;;10.10;89.49;98692.66;5051780;28;19921;-57
2022/11/17 11:29:58;;;;;;;;;;;;;;;10.09;89.53;98693.69;5051706;28;19967;-55
2022/11/17 11:32:50;;;;;;;;;;;;;;;10.11;89.98;98695.09;5044818;28;19921;-56
2022/11/17 11:35:34;;;;;;;;;;;;;;;10.10;89.84;98698.78;5047974;28;19931;-55
2022/11/17 11:38:07;;;;;;;;;;;;;;;10.12;89.13;98706.50;5049967;28;19962;-53
2022/11/17 11:40:36;;;;;;;;;;;;;;;10.15;89.36;98700.81;5050839;28;19932;-56
2022/11/17 11:43:16;;;;;;;;;;;;;;;10.14;89.32;98715.91;5050918;28;19923;-54
2022/11/17 11:46:03;;;;;;;;;;;;;;;10.16;88.78;98715.69;5050892;28;19935;-56
2022/11/17 11:48:32;;;;;;;;;;;;;;;10.16;88.75;98716.50;5051915;28;19932;-55
2022/11/17 11:51:02;;;;;;;;;;;;;;;10.16;89.02;98727.09;5047454;28;19944;-57
2022/11/17 11:53:30;;;;;;;;;;;;;;;10.17;88.40;98736.69;5048764;28;19948;-56
2022/11/17 11:56:16;;;;;;;;;;;;;;;10.16;88.40;98734.25;5050765;28;19947;-57
2022/11/17 11:58:44;;;;;;;;;;;;;;;10.15;88.29;98724.66;5055283;28;19920;-55
2022/11/17 12:01:11;;;;;;;;;;;;;;;10.16;88.70;98739.56;5051939;28;20815;-57
2022/11/17 12:03:45;;;;;;;;;;;;;;;10.12;88.58;98720.63;5048320;28;19917;-54
2022/11/17 12:09:13;;;;;;;;;;;;;;;10.08;88.62;98731.84;5050471;28;20016;-53
2022/11/17 12:14:23;;;;;;;;;;;;;;;10.07;89.01;98740.84;5045683;28;19924;-56
2022/11/17 12:16:49;;;;;;;;;;;;;;;10.09;89.11;98741.44;5043872;28;20289;-56
2022/11/17 12:19:33;;;;;;;;;;;;;;;10.12;88.92;98739.19;5048076;28;19951;-56
2022/11/17 12:21:58;;;;;;;;;;;;;;;10.16;88.55;98735.06;5048947;28;19999;-56
2022/11/17 12:24:32;;;;;;;;;;;;;;;10.17;88.21;98749.94;5049434;28;20059;-58
2022/11/17 12:27:17;;;;;;;;;;;;;;;10.15;88.31;98754.66;5048117;28;19920;-55
2022/11/17 12:29:46;;;;;;;;;;;;;;;10.16;88.01;98748.31;5045669;28;19923;-56
2022/11/17 12:32:31;;;;;;;;;;;;;;;10.17;88.04;98749.13;5049188;28;19927;-57
2022/11/17 12:35:15;;;;;;;;;;;;;;;10.13;88.03;98756.72;5048557;28;20327;-56
2022/11/17 12:37:40;;;;;;;;;;;;;;;10.12;87.84;98755.09;5050191;28;19920;-56
2022/11/17 12:40:07;;;;;;;;;;;;;;;10.13;88.38;98756.72;5045650;28;19917;-57
2022/11/17 12:42:33;;;;;;;;;;;;;;;10.11;88.14;98756.09;5049806;28;19921;-56
2022/11/17 12:44:59;;;;;;;;;;;;;;;10.14;88.21;98754.88;5045630;28;19917;-56
2022/11/17 12:47:46;;;;;;;;;;;;;;;10.11;87.91;98760.59;5048127;28;19927;-54
2022/11/17 12:50:14;;;;;;;;;;;;;;;10.06;88.45;98763.91;5049307;28;19930;-57
2022/11/17 12:52:42;;;;;;;;;;;;;;;10.04;88.72;98758.00;5048236;28;19936;-54
2022/11/17 12:55:13;;;;;;;;;;;;;;;10.05;88.94;98759.63;5049159;28;19990;-54
2022/11/17 12:57:38;;;;;;;;;;;;;;;10.05;88.77;98762.28;5047519;28;19924;-57
2022/11/17 13:00:24;;;;;;;;;;;;;;;10.08;88.94;98775.09;5046381;28;19925;-54
2022/11/17 13:03:09;;;;;;;;;;;;;;;10.11;89.07;98774.66;5051636;28;20392;-56
2022/11/17 13:05:35;;;;;;;;;;;;;;;10.13;88.43;98771.81;5046439;28;19927;-56
2022/11/17 13:08:17;;;;;;;;;;;;;;;10.16;88.58;98780.16;5045631;28;20304;-57
2022/11/17 13:10:42;;;;;;;;;;;;;;;10.18;88.37;98770.13;5045596;28;20333;-56
2022/11/17 13:13:12;;;;;;;;;;;;;;;10.23;88.19;98780.94;5052187;28;20007;-56
2022/11/17 13:15:37;;;;;;;;;;;;;;;10.28;87.83;98777.59;5043164;28;19916;-57
2022/11/17 13:18:08;;;;;;;;;;;;;;;10.27;87.61;98772.53;5047097;28;21245;-57
2022/11/17 13:20:33;;;;;;;;;;;;;;;10.36;87.48;98776.50;5046879;28;20392;-56
2022/11/17 13:23:06;;;;;;;;;;;;;;;10.42;87.33;98780.97;5046508;28;19924;-56
2022/11/17 13:25:31;;;;;;;;;;;;;;;10.46;86.48;98774.97;5044777;28;19916;-56
2022/11/17 13:27:56;;;;;;;;;;;;;;;10.53;86.65;98791.66;5047421;28;19967;-57
2022/11/17 13:30:23;;;;;;;;;;;;;;;10.59;85.84;98797.91;5050655;28;19958;-57
2022/11/17 13:32:48;;;;;;;;;;;;;;;10.62;85.55;98796.66;5042263;28;19921;-56
2022/11/17 13:35:18;;;;;;;;;;;;;;;10.66;85.46;98803.13;5044795;28;19924;-56
2022/11/17 13:37:43;;;;;;;;;;;;;;;10.69;85.13;98813.31;5046111;28;19913;-57